AFR23AH LFPG-EDDF
Flight info
| Callsign | AFR23AH |
|---|---|
| Flight time | 1h 3m |
| Altitude | 23000 |
| Route | RANUX6G RANUX DCT VALEK DCT LIPNI UN858 LIMGO Z111 RAMOB IMCOM1D |
| Aircraft | A320/M-SDE3FGHIRWY/LB1 |
Departure
| Time | 2026-05-08 20:00 |
|---|---|
| Airport | Charles de Gaulle International Airport (LFPG) |
Arrival
| Time | 2026-05-08 21:04 |
|---|---|
| Airport | Frankfurt Main Airport (EDDF) |
| Time | Latitude | Longitude | Altitude | Speed | Heading |
|---|---|---|---|---|---|
| 2026-05-08 19:15 | 49.00714 | 2.57399 | 361 ft | 0 kts | 184° |
| 2026-05-08 19:38 | 49.00715 | 2.57399 | 354 ft | 1 kts | 184° |
| 2026-05-08 19:38 | 49.00738 | 2.57401 | 363 ft | 4 kts | 183° |
| 2026-05-08 19:38 | 49.00765 | 2.57403 | 359 ft | 4 kts | 186° |
| 2026-05-08 19:39 | 49.00791 | 2.57411 | 362 ft | 4 kts | 210° |
| 2026-05-08 19:39 | 49.00803 | 2.57433 | 361 ft | 3 kts | 265° |
| 2026-05-08 19:39 | 49.00804 | 2.57452 | 361 ft | 0 kts | 265° |
| 2026-05-08 19:41 | 49.00803 | 2.57435 | 360 ft | 5 kts | 265° |
| 2026-05-08 19:41 | 49.00798 | 2.57348 | 354 ft | 12 kts | 265° |
| 2026-05-08 19:41 | 49.00801 | 2.57224 | 357 ft | 11 kts | 296° |
| 2026-05-08 19:42 | 49.00852 | 2.57152 | 359 ft | 9 kts | 298° |
| 2026-05-08 19:42 | 49.00851 | 2.57063 | 362 ft | 8 kts | 263° |
| 2026-05-08 19:42 | 49.00846 | 2.56982 | 354 ft | 7 kts | 264° |
| 2026-05-08 19:42 | 49.00841 | 2.56908 | 354 ft | 7 kts | 265° |
| 2026-05-08 19:43 | 49.00838 | 2.56841 | 361 ft | 6 kts | 267° |
| 2026-05-08 19:43 | 49.00836 | 2.56781 | 354 ft | 5 kts | 267° |
| 2026-05-08 19:43 | 49.00834 | 2.56727 | 354 ft | 5 kts | 266° |
| 2026-05-08 19:43 | 49.00832 | 2.56678 | 354 ft | 4 kts | 265° |
| 2026-05-08 19:44 | 49.00829 | 2.56637 | 354 ft | 4 kts | 263° |
| 2026-05-08 19:44 | 49.00823 | 2.56562 | 359 ft | 13 kts | 264° |
| 2026-05-08 19:44 | 49.00811 | 2.56397 | 356 ft | 14 kts | 264° |
| 2026-05-08 19:44 | 49.00804 | 2.56307 | 358 ft | 12 kts | 258° |
| 2026-05-08 19:45 | 49.00791 | 2.56182 | 361 ft | 11 kts | 262° |
| 2026-05-08 19:45 | 49.00780 | 2.56069 | 361 ft | 10 kts | 262° |
| 2026-05-08 19:45 | 49.00771 | 2.55965 | 356 ft | 9 kts | 262° |
| 2026-05-08 19:45 | 49.00762 | 2.55871 | 354 ft | 6 kts | 261° |
| 2026-05-08 19:46 | 49.00761 | 2.55870 | 354 ft | 0 kts | 261° |
| 2026-05-08 19:47 | 49.00758 | 2.55834 | 354 ft | 14 kts | 262° |
| 2026-05-08 19:47 | 49.00742 | 2.55658 | 354 ft | 17 kts | 262° |
| 2026-05-08 19:47 | 49.00730 | 2.55492 | 358 ft | 14 kts | 264° |
| 2026-05-08 19:47 | 49.00732 | 2.55373 | 356 ft | 11 kts | 292° |
| 2026-05-08 19:48 | 49.00789 | 2.55326 | 358 ft | 9 kts | 341° |
| 2026-05-08 19:48 | 49.00850 | 2.55295 | 361 ft | 9 kts | 343° |
| 2026-05-08 19:48 | 49.00908 | 2.55270 | 355 ft | 8 kts | 343° |
| 2026-05-08 19:48 | 49.00959 | 2.55247 | 358 ft | 7 kts | 344° |
| 2026-05-08 19:49 | 49.01002 | 2.55228 | 354 ft | 6 kts | 344° |
| 2026-05-08 19:49 | 49.01037 | 2.55213 | 356 ft | 5 kts | 344° |
| 2026-05-08 19:49 | 49.01093 | 2.55189 | 355 ft | 14 kts | 343° |
| 2026-05-08 19:49 | 49.01209 | 2.55149 | 357 ft | 18 kts | 1° |
| 2026-05-08 19:50 | 49.01322 | 2.55222 | 360 ft | 14 kts | 9° |
| 2026-05-08 19:50 | 49.01424 | 2.55191 | 356 ft | 16 kts | 345° |
| 2026-05-08 19:50 | 49.01544 | 2.55163 | 359 ft | 19 kts | 356° |
| 2026-05-08 19:50 | 49.01678 | 2.55151 | 360 ft | 20 kts | 357° |
| 2026-05-08 19:51 | 49.01815 | 2.55129 | 361 ft | 16 kts | 345° |
| 2026-05-08 19:51 | 49.01856 | 2.54995 | 357 ft | 15 kts | 266° |
| 2026-05-08 19:51 | 49.01849 | 2.54842 | 355 ft | 14 kts | 265° |
| 2026-05-08 19:51 | 49.01839 | 2.54703 | 355 ft | 13 kts | 263° |
| 2026-05-08 19:52 | 49.01834 | 2.54575 | 354 ft | 11 kts | 266° |
| 2026-05-08 19:52 | 49.01828 | 2.54460 | 361 ft | 10 kts | 265° |
| 2026-05-08 19:52 | 49.01822 | 2.54355 | 355 ft | 9 kts | 265° |
| 2026-05-08 19:52 | 49.01817 | 2.54252 | 354 ft | 11 kts | 266° |
| 2026-05-08 19:53 | 49.01811 | 2.54119 | 357 ft | 14 kts | 266° |
| 2026-05-08 19:53 | 49.01802 | 2.53953 | 357 ft | 17 kts | 266° |
| 2026-05-08 19:53 | 49.01792 | 2.53749 | 362 ft | 21 kts | 265° |
| 2026-05-08 19:53 | 49.01776 | 2.53515 | 359 ft | 23 kts | 267° |
| 2026-05-08 19:54 | 49.01762 | 2.53266 | 355 ft | 25 kts | 264° |
| 2026-05-08 19:54 | 49.01749 | 2.53004 | 356 ft | 26 kts | 266° |
| 2026-05-08 19:54 | 49.01733 | 2.52720 | 356 ft | 28 kts | 263° |
| 2026-05-08 19:54 | 49.01719 | 2.52441 | 359 ft | 21 kts | 266° |
| 2026-05-08 19:55 | 49.01708 | 2.52218 | 356 ft | 21 kts | 268° |
| 2026-05-08 19:55 | 49.01773 | 2.52137 | 355 ft | 14 kts | 354° |
| 2026-05-08 19:55 | 49.01878 | 2.52126 | 355 ft | 16 kts | 354° |
| 2026-05-08 19:55 | 49.01989 | 2.52113 | 354 ft | 11 kts | 355° |
| 2026-05-08 19:56 | 49.01999 | 2.52111 | 357 ft | 0 kts | 355° |
| 2026-05-08 19:57 | 49.02004 | 2.52111 | 354 ft | 4 kts | 355° |
| 2026-05-08 19:58 | 49.02011 | 2.52110 | 354 ft | 0 kts | 354° |
| 2026-05-08 19:58 | 49.02019 | 2.52109 | 357 ft | 7 kts | 355° |
| 2026-05-08 19:58 | 49.02101 | 2.52108 | 363 ft | 13 kts | 32° |
| 2026-05-08 19:59 | 49.02112 | 2.52187 | 353 ft | 0 kts | 84° |
| 2026-05-08 19:59 | 49.02114 | 2.52227 | 353 ft | 24 kts | 85° |
| 2026-05-08 19:59 | 49.02155 | 2.52915 | 359 ft | 102 kts | 85° |
| 2026-05-08 20:00 | 49.02227 | 2.54306 | 367 ft | 158 kts | 86° |
| 2026-05-08 20:00 | 49.02319 | 2.55993 | 992 ft | 160 kts | 84° |
| 2026-05-08 20:00 | 49.02409 | 2.57677 | 1816 ft | 158 kts | 84° |
| 2026-05-08 20:00 | 49.02497 | 2.59378 | 2500 ft | 169 kts | 85° |
| 2026-05-08 20:01 | 49.02594 | 2.61254 | 2919 ft | 191 kts | 85° |
| 2026-05-08 20:01 | 49.02708 | 2.63439 | 3328 ft | 212 kts | 85° |
| 2026-05-08 20:01 | 49.02830 | 2.65758 | 3778 ft | 234 kts | 86° |
| 2026-05-08 20:01 | 49.02968 | 2.68357 | 4351 ft | 255 kts | 86° |
| 2026-05-08 20:02 | 49.03112 | 2.71105 | 5243 ft | 263 kts | 86° |
| 2026-05-08 20:02 | 49.03256 | 2.73921 | 6152 ft | 270 kts | 87° |
| 2026-05-08 20:02 | 49.03398 | 2.76820 | 7041 ft | 277 kts | 86° |
| 2026-05-08 20:02 | 49.03540 | 2.79778 | 7915 ft | 283 kts | 86° |
| 2026-05-08 20:03 | 49.03684 | 2.82806 | 8801 ft | 290 kts | 87° |
| 2026-05-08 20:03 | 49.03831 | 2.85943 | 9696 ft | 296 kts | 87° |
| 2026-05-08 20:03 | 49.03979 | 2.89120 | 10405 ft | 308 kts | 87° |
| 2026-05-08 20:03 | 49.04137 | 2.92502 | 10739 ft | 332 kts | 86° |
| 2026-05-08 20:04 | 49.04340 | 2.96138 | 11016 ft | 356 kts | 85° |
| 2026-05-08 20:04 | 49.04607 | 2.99924 | 11533 ft | 369 kts | 84° |
| 2026-05-08 20:04 | 49.04914 | 3.03888 | 12283 ft | 374 kts | 84° |
| 2026-05-08 20:04 | 49.05227 | 3.07844 | 13064 ft | 378 kts | 84° |
| 2026-05-08 20:05 | 49.05535 | 3.11796 | 13813 ft | 383 kts | 84° |
| 2026-05-08 20:05 | 49.05845 | 3.15898 | 14517 ft | 386 kts | 84° |
| 2026-05-08 20:05 | 49.06146 | 3.19984 | 15222 ft | 389 kts | 84° |
| 2026-05-08 20:05 | 49.06443 | 3.24107 | 15928 ft | 392 kts | 84° |
| 2026-05-08 20:06 | 49.06735 | 3.28202 | 16625 ft | 395 kts | 84° |
| 2026-05-08 20:06 | 49.07033 | 3.32436 | 17329 ft | 398 kts | 84° |
| 2026-05-08 20:06 | 49.07326 | 3.36650 | 18014 ft | 402 kts | 84° |
| 2026-05-08 20:06 | 49.07622 | 3.40905 | 18649 ft | 405 kts | 84° |
| 2026-05-08 20:07 | 49.07917 | 3.45144 | 19219 ft | 409 kts | 83° |
| 2026-05-08 20:07 | 49.08217 | 3.49471 | 19777 ft | 413 kts | 83° |
| 2026-05-08 20:07 | 49.08521 | 3.53849 | 20326 ft | 417 kts | 82° |
| 2026-05-08 20:07 | 49.08828 | 3.58267 | 20849 ft | 421 kts | 82° |
| 2026-05-08 20:08 | 49.09135 | 3.62738 | 21369 ft | 425 kts | 82° |
| 2026-05-08 20:08 | 49.09440 | 3.67236 | 21890 ft | 428 kts | 82° |
| 2026-05-08 20:08 | 49.09745 | 3.71777 | 22377 ft | 432 kts | 81° |
| 2026-05-08 20:08 | 49.10053 | 3.76360 | 22846 ft | 435 kts | 81° |
| 2026-05-08 20:09 | 49.10362 | 3.80979 | 23042 ft | 439 kts | 81° |
| 2026-05-08 20:09 | 49.10675 | 3.85677 | 23075 ft | 452 kts | 81° |
| 2026-05-08 20:09 | 49.10994 | 3.90486 | 23067 ft | 458 kts | 81° |
| 2026-05-08 20:09 | 49.11312 | 3.95332 | 23066 ft | 459 kts | 81° |
| 2026-05-08 20:10 | 49.11624 | 4.00181 | 23061 ft | 460 kts | 81° |
| 2026-05-08 20:10 | 49.11935 | 4.05045 | 23059 ft | 460 kts | 81° |
| 2026-05-08 20:10 | 49.12242 | 4.09904 | 23055 ft | 460 kts | 82° |
| 2026-05-08 20:10 | 49.12548 | 4.14776 | 23054 ft | 460 kts | 82° |
| 2026-05-08 20:11 | 49.12850 | 4.19631 | 23059 ft | 460 kts | 82° |
| 2026-05-08 20:11 | 49.13149 | 4.24432 | 23055 ft | 460 kts | 82° |
| 2026-05-08 20:11 | 49.13457 | 4.29349 | 23061 ft | 460 kts | 82° |
| 2026-05-08 20:11 | 49.13846 | 4.34180 | 23055 ft | 457 kts | 76° |
| 2026-05-08 20:12 | 49.14652 | 4.38856 | 23060 ft | 454 kts | 68° |
| 2026-05-08 20:12 | 49.15812 | 4.43256 | 23077 ft | 452 kts | 65° |
| 2026-05-08 20:12 | 49.17027 | 4.47686 | 23076 ft | 452 kts | 65° |
| 2026-05-08 20:12 | 49.18233 | 4.52122 | 23080 ft | 452 kts | 65° |
| 2026-05-08 20:13 | 49.19434 | 4.56565 | 23081 ft | 452 kts | 65° |
| 2026-05-08 20:13 | 49.20628 | 4.61007 | 23079 ft | 452 kts | 65° |
| 2026-05-08 20:13 | 49.21821 | 4.65448 | 23091 ft | 451 kts | 66° |
| 2026-05-08 20:13 | 49.23012 | 4.69880 | 23104 ft | 450 kts | 66° |
| 2026-05-08 20:14 | 49.24201 | 4.74299 | 23109 ft | 449 kts | 66° |
| 2026-05-08 20:14 | 49.25387 | 4.78708 | 23109 ft | 448 kts | 66° |
| 2026-05-08 20:14 | 49.26569 | 4.83112 | 23110 ft | 447 kts | 66° |
| 2026-05-08 20:14 | 49.27747 | 4.87516 | 23106 ft | 446 kts | 66° |
| 2026-05-08 20:15 | 49.28921 | 4.91914 | 23112 ft | 446 kts | 67° |
| 2026-05-08 20:15 | 49.30093 | 4.96317 | 23110 ft | 446 kts | 67° |
| 2026-05-08 20:15 | 49.31259 | 5.00720 | 23106 ft | 446 kts | 67° |
| 2026-05-08 20:15 | 49.32421 | 5.05118 | 23103 ft | 445 kts | 67° |
| 2026-05-08 20:16 | 49.33583 | 5.09525 | 23101 ft | 445 kts | 67° |
| 2026-05-08 20:16 | 49.34748 | 5.13931 | 23099 ft | 445 kts | 67° |
| 2026-05-08 20:16 | 49.35911 | 5.18334 | 23097 ft | 445 kts | 67° |
| 2026-05-08 20:16 | 49.37070 | 5.22736 | 23095 ft | 445 kts | 67° |
| 2026-05-08 20:17 | 49.38227 | 5.27147 | 23095 ft | 445 kts | 67° |
| 2026-05-08 20:17 | 49.39376 | 5.31556 | 23095 ft | 445 kts | 67° |
| 2026-05-08 20:17 | 49.40527 | 5.35967 | 23090 ft | 445 kts | 68° |
| 2026-05-08 20:17 | 49.41681 | 5.40379 | 23083 ft | 446 kts | 68° |
| 2026-05-08 20:18 | 49.42834 | 5.44804 | 23080 ft | 446 kts | 68° |
| 2026-05-08 20:18 | 49.43988 | 5.49239 | 23082 ft | 447 kts | 68° |
| 2026-05-08 20:18 | 49.45139 | 5.53669 | 23079 ft | 447 kts | 68° |
| 2026-05-08 20:18 | 49.46294 | 5.58118 | 23083 ft | 447 kts | 68° |
| 2026-05-08 20:19 | 49.47430 | 5.62502 | 23087 ft | 447 kts | 68° |
| 2026-05-08 20:19 | 49.48580 | 5.66951 | 23089 ft | 448 kts | 68° |
| 2026-05-08 20:19 | 49.49729 | 5.71414 | 23091 ft | 448 kts | 68° |
| 2026-05-08 20:19 | 49.50875 | 5.75871 | 23092 ft | 448 kts | 68° |
| 2026-05-08 20:20 | 49.52014 | 5.80338 | 23098 ft | 448 kts | 68° |
| 2026-05-08 20:20 | 49.53112 | 5.84810 | 23099 ft | 448 kts | 69° |
| 2026-05-08 20:20 | 49.54214 | 5.89381 | 23092 ft | 449 kts | 69° |
| 2026-05-08 20:20 | 49.55291 | 5.93830 | 23091 ft | 450 kts | 69° |
| 2026-05-08 20:21 | 49.56410 | 5.98401 | 23091 ft | 450 kts | 69° |
| 2026-05-08 20:21 | 49.57508 | 6.02848 | 23097 ft | 450 kts | 68° |
| 2026-05-08 20:21 | 49.58804 | 6.07232 | 23098 ft | 450 kts | 63° |
| 2026-05-08 20:21 | 49.60220 | 6.11539 | 23104 ft | 450 kts | 62° |
| 2026-05-08 20:22 | 49.61654 | 6.15827 | 23110 ft | 450 kts | 62° |
| 2026-05-08 20:22 | 49.63095 | 6.20104 | 23114 ft | 450 kts | 62° |
| 2026-05-08 20:22 | 49.64541 | 6.24391 | 23116 ft | 450 kts | 62° |
| 2026-05-08 20:22 | 49.65512 | 6.27283 | 23116 ft | 450 kts | 62° |
| 2026-05-08 20:23 | 49.67411 | 6.32972 | 23109 ft | 450 kts | 63° |
| 2026-05-08 20:23 | 49.68843 | 6.37283 | 23072 ft | 455 kts | 63° |
| 2026-05-08 20:23 | 49.70294 | 6.41670 | 22253 ft | 459 kts | 63° |
| 2026-05-08 20:23 | 49.71746 | 6.46072 | 21178 ft | 458 kts | 63° |
| 2026-05-08 20:24 | 49.73167 | 6.50390 | 20792 ft | 443 kts | 63° |
| 2026-05-08 20:24 | 49.74545 | 6.54589 | 20198 ft | 434 kts | 63° |
| 2026-05-08 20:24 | 49.75905 | 6.58730 | 19524 ft | 429 kts | 63° |
| 2026-05-08 20:24 | 49.77245 | 6.62813 | 18852 ft | 425 kts | 63° |
| 2026-05-08 20:25 | 49.78578 | 6.66877 | 18175 ft | 421 kts | 63° |
| 2026-05-08 20:25 | 49.79892 | 6.70889 | 17472 ft | 417 kts | 63° |
| 2026-05-08 20:25 | 49.81194 | 6.74875 | 16798 ft | 413 kts | 63° |
| 2026-05-08 20:25 | 49.82479 | 6.78823 | 16266 ft | 410 kts | 63° |
| 2026-05-08 20:26 | 49.83331 | 6.81445 | 16137 ft | 410 kts | 63° |
| 2026-05-08 20:26 | 49.84613 | 6.85397 | 16109 ft | 411 kts | 63° |
| 2026-05-08 20:26 | 49.85895 | 6.89349 | 16105 ft | 411 kts | 63° |
| 2026-05-08 20:26 | 49.87181 | 6.93317 | 16126 ft | 412 kts | 63° |
| 2026-05-08 20:27 | 49.88466 | 6.97281 | 16123 ft | 411 kts | 63° |
| 2026-05-08 20:27 | 49.89749 | 7.01241 | 16124 ft | 411 kts | 63° |
| 2026-05-08 20:27 | 49.91034 | 7.05215 | 16113 ft | 411 kts | 64° |
| 2026-05-08 20:27 | 49.92309 | 7.09170 | 15791 ft | 411 kts | 64° |
| 2026-05-08 20:28 | 49.93596 | 7.13183 | 14683 ft | 419 kts | 64° |
| 2026-05-08 20:28 | 49.94893 | 7.17246 | 13856 ft | 419 kts | 64° |
| 2026-05-08 20:28 | 49.96179 | 7.21262 | 13064 ft | 415 kts | 64° |
| 2026-05-08 20:28 | 49.97462 | 7.25260 | 12348 ft | 410 kts | 64° |
| 2026-05-08 20:29 | 49.98710 | 7.29147 | 12172 ft | 394 kts | 64° |
| 2026-05-08 20:29 | 49.99902 | 7.32868 | 12400 ft | 370 kts | 64° |
| 2026-05-08 20:29 | 50.01004 | 7.36326 | 12575 ft | 345 kts | 64° |
| 2026-05-08 20:29 | 50.02034 | 7.39563 | 12938 ft | 323 kts | 64° |
| 2026-05-08 20:30 | 50.02998 | 7.42588 | 13100 ft | 303 kts | 64° |
| 2026-05-08 20:30 | 50.03908 | 7.45449 | 13138 ft | 290 kts | 64° |
| 2026-05-08 20:30 | 50.04795 | 7.48242 | 13133 ft | 287 kts | 64° |
| 2026-05-08 20:30 | 50.05672 | 7.51024 | 13122 ft | 286 kts | 64° |
| 2026-05-08 20:31 | 50.06545 | 7.53804 | 13131 ft | 286 kts | 64° |
| 2026-05-08 20:31 | 50.07420 | 7.56587 | 13119 ft | 286 kts | 64° |
| 2026-05-08 20:31 | 50.08294 | 7.59358 | 13122 ft | 286 kts | 64° |
| 2026-05-08 20:31 | 50.09151 | 7.62149 | 13121 ft | 286 kts | 68° |
| 2026-05-08 20:32 | 50.09776 | 7.65081 | 13125 ft | 285 kts | 77° |
| 2026-05-08 20:32 | 50.10112 | 7.68118 | 13125 ft | 284 kts | 86° |
| 2026-05-08 20:32 | 50.10164 | 7.71191 | 13060 ft | 283 kts | 94° |
| 2026-05-08 20:32 | 50.09931 | 7.74223 | 12975 ft | 282 kts | 103° |
| 2026-05-08 20:33 | 50.09432 | 7.77159 | 12895 ft | 281 kts | 108° |
| 2026-05-08 20:33 | 50.08856 | 7.80074 | 12813 ft | 281 kts | 108° |
| 2026-05-08 20:33 | 50.08285 | 7.82982 | 12736 ft | 281 kts | 108° |
| 2026-05-08 20:33 | 50.07716 | 7.85885 | 12654 ft | 281 kts | 108° |
| 2026-05-08 20:34 | 50.07145 | 7.88794 | 12579 ft | 280 kts | 108° |
| 2026-05-08 20:34 | 50.06573 | 7.91692 | 12503 ft | 280 kts | 108° |
| 2026-05-08 20:34 | 50.05441 | 7.97350 | 12274 ft | 266 kts | 109° |
| 2026-05-08 20:35 | 50.04897 | 8.00054 | 12145 ft | 258 kts | 108° |
| 2026-05-08 20:35 | 50.04653 | 8.02771 | 11846 ft | 258 kts | 84° |
| 2026-05-08 20:35 | 50.05152 | 8.05489 | 11384 ft | 265 kts | 69° |
| 2026-05-08 20:35 | 50.05867 | 8.08138 | 11133 ft | 265 kts | 67° |
| 2026-05-08 20:36 | 50.06604 | 8.10775 | 11122 ft | 267 kts | 66° |
| 2026-05-08 20:36 | 50.07350 | 8.13436 | 11123 ft | 268 kts | 66° |
| 2026-05-08 20:36 | 50.08124 | 8.16067 | 11128 ft | 268 kts | 61° |
| 2026-05-08 20:36 | 50.09173 | 8.18449 | 11126 ft | 267 kts | 43° |
| 2026-05-08 20:37 | 50.10758 | 8.19894 | 11127 ft | 265 kts | 14° |
| 2026-05-08 20:37 | 50.12556 | 8.20547 | 11126 ft | 266 kts | 18° |
| 2026-05-08 20:37 | 50.14107 | 8.22091 | 11131 ft | 268 kts | 48° |
| 2026-05-08 20:37 | 50.15006 | 8.24604 | 11131 ft | 268 kts | 77° |
| 2026-05-08 20:38 | 50.15063 | 8.27434 | 11125 ft | 267 kts | 99° |
| 2026-05-08 20:38 | 50.14720 | 8.30274 | 11129 ft | 267 kts | 103° |
| 2026-05-08 20:38 | 50.14117 | 8.32989 | 11127 ft | 265 kts | 120° |
| 2026-05-08 20:38 | 50.13187 | 8.35464 | 11123 ft | 265 kts | 123° |
| 2026-05-08 20:39 | 50.12219 | 8.37886 | 11130 ft | 265 kts | 124° |
| 2026-05-08 20:39 | 50.11239 | 8.40319 | 11127 ft | 265 kts | 124° |
| 2026-05-08 20:39 | 50.10265 | 8.42723 | 11131 ft | 264 kts | 124° |
| 2026-05-08 20:39 | 50.09282 | 8.45147 | 11138 ft | 264 kts | 124° |
| 2026-05-08 20:40 | 50.08302 | 8.47561 | 11134 ft | 264 kts | 124° |
| 2026-05-08 20:40 | 50.07320 | 8.49978 | 11138 ft | 264 kts | 124° |
| 2026-05-08 20:40 | 50.06560 | 8.52581 | 11139 ft | 266 kts | 102° |
| 2026-05-08 20:40 | 50.06342 | 8.55433 | 10936 ft | 265 kts | 95° |
| 2026-05-08 20:41 | 50.06228 | 8.58282 | 10615 ft | 265 kts | 94° |
| 2026-05-08 20:41 | 50.06124 | 8.61147 | 10296 ft | 264 kts | 94° |
| 2026-05-08 20:41 | 50.06025 | 8.63887 | 9998 ft | 263 kts | 94° |
| 2026-05-08 20:41 | 50.05920 | 8.66723 | 9646 ft | 262 kts | 94° |
| 2026-05-08 20:42 | 50.05751 | 8.69535 | 9299 ft | 260 kts | 105° |
| 2026-05-08 20:42 | 50.04911 | 8.71936 | 9125 ft | 253 kts | 137° |
| 2026-05-08 20:42 | 50.03422 | 8.73306 | 9134 ft | 250 kts | 168° |
| 2026-05-08 20:42 | 50.01713 | 8.73318 | 9137 ft | 246 kts | 199° |
| 2026-05-08 20:43 | 50.00264 | 8.71993 | 9139 ft | 243 kts | 227° |
| 2026-05-08 20:43 | 49.99166 | 8.69992 | 9137 ft | 244 kts | 233° |
| 2026-05-08 20:43 | 49.98180 | 8.67848 | 9135 ft | 243 kts | 243° |
| 2026-05-08 20:43 | 49.97482 | 8.65463 | 9110 ft | 243 kts | 248° |
| 2026-05-08 20:44 | 49.96853 | 8.63039 | 8766 ft | 241 kts | 249° |
| 2026-05-08 20:44 | 49.96236 | 8.60622 | 8403 ft | 240 kts | 249° |
| 2026-05-08 20:44 | 49.95622 | 8.58215 | 8152 ft | 237 kts | 249° |
| 2026-05-08 20:44 | 49.95013 | 8.55826 | 8139 ft | 239 kts | 249° |
| 2026-05-08 20:45 | 49.94399 | 8.53418 | 8138 ft | 240 kts | 249° |
| 2026-05-08 20:45 | 49.93991 | 8.51817 | 8135 ft | 240 kts | 249° |
| 2026-05-08 20:45 | 49.93170 | 8.48597 | 8139 ft | 240 kts | 249° |
| 2026-05-08 20:45 | 49.92556 | 8.46189 | 8135 ft | 240 kts | 249° |
| 2026-05-08 20:46 | 49.91941 | 8.43780 | 8112 ft | 240 kts | 249° |
| 2026-05-08 20:46 | 49.91332 | 8.41390 | 7815 ft | 238 kts | 249° |
| 2026-05-08 20:46 | 49.90723 | 8.39010 | 7446 ft | 237 kts | 249° |
| 2026-05-08 20:46 | 49.90113 | 8.36631 | 7089 ft | 236 kts | 249° |
| 2026-05-08 20:47 | 49.89506 | 8.34271 | 6751 ft | 235 kts | 249° |
| 2026-05-08 20:47 | 49.88906 | 8.31927 | 6386 ft | 234 kts | 249° |
| 2026-05-08 20:47 | 49.88310 | 8.29582 | 6010 ft | 233 kts | 249° |
| 2026-05-08 20:47 | 49.87732 | 8.27297 | 5874 ft | 222 kts | 249° |
| 2026-05-08 20:48 | 49.87177 | 8.25107 | 5696 ft | 215 kts | 249° |
| 2026-05-08 20:48 | 49.86643 | 8.22999 | 5418 ft | 212 kts | 249° |
| 2026-05-08 20:48 | 49.86097 | 8.20836 | 5077 ft | 213 kts | 249° |
| 2026-05-08 20:48 | 49.85561 | 8.18707 | 4983 ft | 213 kts | 249° |
| 2026-05-08 20:49 | 49.85024 | 8.16556 | 4987 ft | 217 kts | 249° |
| 2026-05-08 20:49 | 49.84486 | 8.14368 | 4986 ft | 218 kts | 249° |
| 2026-05-08 20:49 | 49.83948 | 8.12178 | 4985 ft | 218 kts | 249° |
| 2026-05-08 20:49 | 49.83408 | 8.09981 | 4986 ft | 218 kts | 249° |
| 2026-05-08 20:50 | 49.82869 | 8.07788 | 4991 ft | 218 kts | 249° |
| 2026-05-08 20:50 | 49.82330 | 8.05592 | 4989 ft | 218 kts | 249° |
| 2026-05-08 20:50 | 49.81792 | 8.03402 | 4989 ft | 218 kts | 249° |
| 2026-05-08 20:50 | 49.81252 | 8.01209 | 4987 ft | 218 kts | 249° |
| 2026-05-08 20:51 | 49.80713 | 7.99019 | 4840 ft | 217 kts | 249° |
| 2026-05-08 20:51 | 49.80179 | 7.96843 | 4496 ft | 217 kts | 249° |
| 2026-05-08 20:51 | 49.79646 | 7.94658 | 4173 ft | 217 kts | 249° |
| 2026-05-08 20:51 | 49.79392 | 7.92392 | 3994 ft | 215 kts | 274° |
| 2026-05-08 20:52 | 49.79857 | 7.90209 | 3993 ft | 216 kts | 309° |
| 2026-05-08 20:52 | 49.81034 | 7.88851 | 3994 ft | 213 kts | 345° |
| 2026-05-08 20:52 | 49.82472 | 7.88806 | 3992 ft | 208 kts | 21° |
| 2026-05-08 20:52 | 49.83777 | 7.89762 | 3996 ft | 208 kts | 32° |
| 2026-05-08 20:53 | 49.85024 | 7.90913 | 3992 ft | 208 kts | 33° |
| 2026-05-08 20:53 | 49.86256 | 7.92090 | 3991 ft | 208 kts | 33° |
| 2026-05-08 20:53 | 49.87452 | 7.93237 | 3980 ft | 194 kts | 34° |
| 2026-05-08 20:53 | 49.88534 | 7.94399 | 3985 ft | 187 kts | 42° |
| 2026-05-08 20:54 | 49.89240 | 7.96035 | 3967 ft | 184 kts | 78° |
| 2026-05-08 20:54 | 49.89211 | 7.97963 | 3849 ft | 181 kts | 96° |
| 2026-05-08 20:54 | 49.89357 | 7.99865 | 3692 ft | 179 kts | 66° |
| 2026-05-08 20:54 | 49.89923 | 8.01562 | 3425 ft | 179 kts | 63° |
| 2026-05-08 20:55 | 49.90598 | 8.03139 | 3483 ft | 172 kts | 58° |
| 2026-05-08 20:55 | 49.91173 | 8.04732 | 3484 ft | 171 kts | 66° |
| 2026-05-08 20:55 | 49.91617 | 8.06444 | 3521 ft | 172 kts | 71° |
| 2026-05-08 20:55 | 49.92018 | 8.08219 | 3589 ft | 172 kts | 73° |
| 2026-05-08 20:56 | 49.92372 | 8.09997 | 3601 ft | 173 kts | 75° |
| 2026-05-08 20:56 | 49.92680 | 8.11778 | 3496 ft | 173 kts | 77° |
| 2026-05-08 20:56 | 49.92954 | 8.13587 | 3271 ft | 172 kts | 78° |
| 2026-05-08 20:56 | 49.93266 | 8.15363 | 2991 ft | 170 kts | 72° |
| 2026-05-08 20:57 | 49.93689 | 8.17070 | 2798 ft | 169 kts | 68° |
| 2026-05-08 20:57 | 49.94158 | 8.18732 | 2728 ft | 167 kts | 67° |
| 2026-05-08 20:57 | 49.94635 | 8.20285 | 2729 ft | 153 kts | 65° |
| 2026-05-08 20:57 | 49.95130 | 8.21782 | 2854 ft | 157 kts | 64° |
| 2026-05-08 20:58 | 49.95656 | 8.23286 | 2796 ft | 159 kts | 64° |
| 2026-05-08 20:58 | 49.96062 | 8.24854 | 2865 ft | 157 kts | 74° |
| 2026-05-08 20:58 | 49.96376 | 8.26489 | 2911 ft | 158 kts | 74° |
| 2026-05-08 20:58 | 49.96724 | 8.28116 | 2897 ft | 158 kts | 72° |
| 2026-05-08 20:59 | 49.97072 | 8.29734 | 2899 ft | 158 kts | 72° |
| 2026-05-08 20:59 | 49.97438 | 8.31345 | 2846 ft | 158 kts | 71° |
| 2026-05-08 20:59 | 49.97823 | 8.32943 | 2711 ft | 157 kts | 71° |
| 2026-05-08 20:59 | 49.98203 | 8.34539 | 2579 ft | 157 kts | 72° |
| 2026-05-08 21:00 | 49.98551 | 8.36061 | 2315 ft | 144 kts | 71° |
| 2026-05-08 21:00 | 49.98904 | 8.37469 | 2056 ft | 135 kts | 70° |
| 2026-05-08 21:00 | 49.99246 | 8.38798 | 1860 ft | 130 kts | 71° |
| 2026-05-08 21:00 | 49.99568 | 8.40101 | 1679 ft | 129 kts | 70° |
| 2026-05-08 21:01 | 49.99887 | 8.41407 | 1539 ft | 129 kts | 71° |
| 2026-05-08 21:01 | 50.00184 | 8.42717 | 1409 ft | 129 kts | 72° |
| 2026-05-08 21:01 | 50.00478 | 8.44042 | 1299 ft | 130 kts | 69° |
| 2026-05-08 21:01 | 50.00800 | 8.45359 | 1165 ft | 131 kts | 68° |
| 2026-05-08 21:02 | 50.01133 | 8.46676 | 1015 ft | 131 kts | 67° |
| 2026-05-08 21:02 | 50.01468 | 8.47996 | 854 ft | 131 kts | 66° |
| 2026-05-08 21:02 | 50.01781 | 8.49323 | 726 ft | 130 kts | 68° |
| 2026-05-08 21:02 | 50.02082 | 8.50650 | 619 ft | 130 kts | 68° |
| 2026-05-08 21:03 | 50.02400 | 8.51958 | 521 ft | 129 kts | 66° |
| 2026-05-08 21:03 | 50.02717 | 8.53268 | 405 ft | 129 kts | 66° |
| 2026-05-08 21:03 | 50.03025 | 8.54552 | 356 ft | 119 kts | 68° |
| 2026-05-08 21:03 | 50.03254 | 8.55498 | 348 ft | 72 kts | 69° |
| 2026-05-08 21:04 | 50.03387 | 8.56062 | 350 ft | 47 kts | 70° |
| 2026-05-08 21:04 | 50.03501 | 8.56318 | 348 ft | 22 kts | 41° |
| 2026-05-08 21:04 | 50.03563 | 8.56406 | 351 ft | 0 kts | 39° |
| 2026-05-08 21:05 | 50.03572 | 8.56417 | 346 ft | 6 kts | 37° |
| 2026-05-08 21:05 | 50.03635 | 8.56491 | 352 ft | 15 kts | 39° |
| 2026-05-08 21:05 | 50.03720 | 8.56611 | 346 ft | 18 kts | 43° |
| 2026-05-08 21:05 | 50.03802 | 8.56763 | 349 ft | 19 kts | 66° |
| 2026-05-08 21:06 | 50.03848 | 8.56963 | 346 ft | 19 kts | 69° |
| 2026-05-08 21:06 | 50.03894 | 8.57152 | 346 ft | 20 kts | 73° |
| 2026-05-08 21:06 | 50.03948 | 8.57364 | 347 ft | 22 kts | 67° |
| 2026-05-08 21:06 | 50.04007 | 8.57601 | 352 ft | 24 kts | 70° |
| 2026-05-08 21:07 | 50.04066 | 8.57851 | 346 ft | 26 kts | 70° |
| 2026-05-08 21:07 | 50.04107 | 8.58030 | 346 ft | 25 kts | 71° |
| 2026-05-08 21:07 | 50.04168 | 8.58293 | 347 ft | 27 kts | 69° |
| 2026-05-08 21:07 | 50.04233 | 8.58566 | 349 ft | 28 kts | 70° |
| 2026-05-08 21:08 | 50.04300 | 8.58852 | 351 ft | 29 kts | 69° |
| 2026-05-08 21:08 | 50.04366 | 8.59119 | 349 ft | 26 kts | 69° |
| 2026-05-08 21:08 | 50.04427 | 8.59374 | 346 ft | 22 kts | 70° |
| 2026-05-08 21:08 | 50.04494 | 8.59472 | 346 ft | 11 kts | 359° |
| 2026-05-08 21:09 | 50.04502 | 8.59472 | 346 ft | 0 kts | 357° |
| 2026-05-08 21:09 | 50.04503 | 8.59472 | 346 ft | 2 kts | 357° |
| 2026-05-08 21:10 | 50.04547 | 8.59469 | 346 ft | 10 kts | 358° |
| 2026-05-08 21:10 | 50.04560 | 8.59468 | 350 ft | 0 kts | 358° |
| 2026-05-08 21:12 | 50.04625 | 8.59464 | 346 ft | 16 kts | 355° |
| 2026-05-08 21:12 | 50.04740 | 8.59422 | 350 ft | 18 kts | 341° |
| 2026-05-08 21:13 | 50.04822 | 8.59455 | 349 ft | 14 kts | 70° |
| 2026-05-08 21:13 | 50.04853 | 8.59621 | 348 ft | 17 kts | 74° |
| 2026-05-08 21:13 | 50.04883 | 8.59733 | 349 ft | 0 kts | 66° |
| 2026-05-08 21:14 | 50.04886 | 8.59741 | 347 ft | 4 kts | 57° |
| 2026-05-08 21:14 | 50.04903 | 8.59716 | 350 ft | 8 kts | 294° |
| 2026-05-08 21:14 | 50.04913 | 8.59685 | 351 ft | 0 kts | 298° |
| 2026-05-08 21:14 | 50.04916 | 8.59677 | 351 ft | 0 kts | 297° |